Time;durP1;ratioP1;P1;durP2;ratioP2;P2;SDS_P1;SDS_P2;PMS_P1;PMS_P2;Temp;Humidity;BMP_temperature;BMP_pressure;BME280_temperature;BME280_humidity;BME280_pressure;Samples;Min_cycle;Max_cycle;Signal;HPM_P1;HPM_P2
2024/03/22 00:01:40;;;;;;;9.65;5.43;;;;;;;6.42;100.00;97387.34;5038995;28;20043;-65
2024/03/22 00:04:05;;;;;;;7.30;5.30;;;;;;;6.36;100.00;97394.06;5034217;28;20040;-65
2024/03/22 00:06:31;;;;;;;10.50;5.13;;;;;;;6.31;100.00;97381.44;5039192;28;20064;-65
2024/03/22 00:08:56;;;;;;;9.82;4.90;;;;;;;6.52;100.00;97388.94;5054786;28;20052;-65
2024/03/22 00:11:21;;;;;;;7.20;4.72;;;;;;;6.73;100.00;97378.13;5049730;28;20276;-65
2024/03/22 00:13:47;;;;;;;9.32;5.38;;;;;;;6.88;100.00;97387.72;5051269;28;20033;-66
2024/03/22 00:16:12;;;;;;;10.43;5.00;;;;;;;6.97;100.00;97380.31;5039801;28;20033;-66
2024/03/22 00:18:37;;;;;;;8.90;5.45;;;;;;;7.02;100.00;97380.16;5039807;28;20037;-66
2024/03/22 00:21:03;;;;;;;9.77;5.25;;;;;;;7.00;100.00;97385.09;5035369;28;20047;-68
2024/03/22 00:23:30;;;;;;;12.73;5.22;;;;;;;6.94;100.00;97380.19;5047279;28;20110;-65
2024/03/22 00:25:56;;;;;;;7.13;4.78;;;;;;;6.89;100.00;97384.66;5041985;28;20028;-65
2024/03/22 00:28:21;;;;;;;7.97;5.30;;;;;;;6.85;100.00;97383.72;5036660;28;20153;-65
2024/03/22 00:30:47;;;;;;;9.38;5.35;;;;;;;6.63;100.00;97384.75;5056652;28;20059;-65
2024/03/22 00:33:12;;;;;;;12.07;5.97;;;;;;;6.62;100.00;97374.19;5034707;28;20047;-66
2024/03/22 00:35:37;;;;;;;10.43;5.60;;;;;;;6.62;100.00;97376.91;5046760;28;20044;-66
2024/03/22 00:38:03;;;;;;;11.10;5.55;;;;;;;6.52;100.00;97367.16;5047973;28;20437;-66
2024/03/22 00:40:29;;;;;;;7.90;5.63;;;;;;;6.47;100.00;97370.84;5049140;28;20040;-66
2024/03/22 00:42:54;;;;;;;8.43;5.00;;;;;;;6.53;100.00;97368.75;5039752;28;20048;-67
2024/03/22 00:45:19;;;;;;;8.57;5.32;;;;;;;6.61;100.00;97370.66;5059517;28;20040;-66
2024/03/22 00:47:45;;;;;;;10.32;5.22;;;;;;;6.67;100.00;97371.28;5049108;28;20048;-66
2024/03/22 00:50:10;;;;;;;6.97;4.97;;;;;;;6.76;100.00;97369.34;5033909;28;20037;-65
2024/03/22 00:52:35;;;;;;;10.00;4.80;;;;;;;6.77;100.00;97360.06;5040503;28;20045;-66
2024/03/22 00:55:01;;;;;;;8.98;6.03;;;;;;;6.81;100.00;97360.19;5038429;28;20036;-66
2024/03/22 00:57:26;;;;;;;8.52;5.05;;;;;;;6.70;100.00;97363.28;5036445;28;20179;-65
2024/03/22 00:59:51;;;;;;;8.63;5.13;;;;;;;6.63;100.00;97362.19;5038700;28;20491;-66
2024/03/22 01:02:17;;;;;;;13.88;6.03;;;;;;;6.54;100.00;97355.97;5048714;28;20041;-66
2024/03/22 01:04:42;;;;;;;8.38;5.68;;;;;;;6.38;100.00;97355.66;5046795;28;20580;-66
2024/03/22 01:07:07;;;;;;;10.60;5.60;;;;;;;6.21;100.00;97340.16;5034523;28;20049;-67
2024/03/22 01:09:33;;;;;;;9.57;5.95;;;;;;;6.50;100.00;97339.47;5046374;28;20052;-66
2024/03/22 01:11:58;;;;;;;8.52;4.78;;;;;;;6.57;100.00;97341.69;5046386;28;20567;-65
2024/03/22 01:14:24;;;;;;;8.73;5.82;;;;;;;6.49;100.00;97346.03;5043679;28;20106;-65
2024/03/22 01:16:49;;;;;;;10.00;5.70;;;;;;;6.29;100.00;97350.25;5048736;28;20381;-66
2024/03/22 01:19:14;;;;;;;9.40;5.50;;;;;;;6.11;100.00;97347.53;5038519;28;20037;-66
2024/03/22 01:21:40;;;;;;;10.45;5.38;;;;;;;6.06;100.00;97347.69;5058535;28;20127;-66
2024/03/22 01:24:05;;;;;;;11.18;5.30;;;;;;;6.03;100.00;97342.09;5043332;28;20408;-66
2024/03/22 01:26:31;;;;;;;9.10;5.25;;;;;;;6.12;100.00;97345.59;5057696;28;20036;-66
2024/03/22 01:28:56;;;;;;;12.07;5.43;;;;;;;6.20;100.00;97335.84;5051976;28;20488;-66
2024/03/22 01:31:22;;;;;;;8.00;4.88;;;;;;;6.17;100.00;97342.72;5045632;28;20585;-65
2024/03/22 01:33:47;;;;;;;9.68;5.45;;;;;;;5.80;100.00;97334.09;5052398;28;20032;-65
2024/03/22 01:36:12;;;;;;;10.25;6.15;;;;;;;5.41;100.00;97326.84;5056582;28;20036;-68
2024/03/22 01:38:38;;;;;;;13.32;5.90;;;;;;;5.24;100.00;97330.31;5054427;28;20036;-65
2024/03/22 01:41:03;;;;;;;8.63;5.70;;;;;;;5.12;100.00;97329.03;5055343;28;20029;-68
2024/03/22 01:43:29;;;;;;;8.50;6.00;;;;;;;5.04;100.00;97337.16;5074665;28;20063;-67
2024/03/22 01:45:54;;;;;;;10.88;6.78;;;;;;;4.92;100.00;97337.75;5049103;28;20103;-65
2024/03/22 01:48:20;;;;;;;9.48;6.13;;;;;;;5.00;100.00;97334.25;5051081;28;20029;-65
2024/03/22 01:50:46;;;;;;;7.60;5.72;;;;;;;5.10;100.00;97336.69;5043750;28;20047;-66
2024/03/22 01:53:11;;;;;;;11.15;5.93;;;;;;;5.27;100.00;97325.06;5045024;28;20071;-66
2024/03/22 01:55:37;;;;;;;6.55;4.93;;;;;;;5.30;100.00;97326.38;5041606;28;20036;-66
2024/03/22 01:58:04;;;;;;;13.32;5.50;;;;;;;5.29;100.00;97325.53;5038939;28;20048;-68
2024/03/22 02:00:30;;;;;;;6.03;5.00;;;;;;;5.32;100.00;97318.69;5063341;28;20037;-69
2024/03/22 02:02:55;;;;;;;5.60;4.85;;;;;;;5.19;100.00;97315.00;5061746;28;20041;-68
2024/03/22 02:05:21;;;;;;;11.57;5.43;;;;;;;5.05;100.00;97317.03;5041339;28;20528;-68
2024/03/22 02:07:47;;;;;;;12.13;5.30;;;;;;;4.96;100.00;97306.94;5051531;28;20047;-68
2024/03/22 02:10:14;;;;;;;7.00;4.97;;;;;;;5.07;100.00;97315.59;5039372;28;20041;-68
2024/03/22 02:12:40;;;;;;;8.95;5.38;;;;;;;5.11;100.00;97313.03;5041737;28;20043;-68
2024/03/22 02:15:07;;;;;;;8.57;5.47;;;;;;;5.04;100.00;97315.44;5036358;28;20033;-67
2024/03/22 02:17:33;;;;;;;8.80;5.28;;;;;;;5.07;100.00;97309.38;5042090;28;20419;-67
2024/03/22 02:19:59;;;;;;;7.85;5.55;;;;;;;5.21;100.00;97307.31;5041092;28;20033;-67
2024/03/22 02:22:25;;;;;;;8.50;5.18;;;;;;;5.24;100.00;97298.56;5036932;28;20040;-67
2024/03/22 02:24:51;;;;;;;12.43;5.28;;;;;;;5.30;100.00;97301.91;5042743;28;20045;-67
2024/03/22 02:27:16;;;;;;;9.48;5.13;;;;;;;5.28;100.00;97296.78;5044084;28;20037;-66
2024/03/22 02:29:42;;;;;;;7.35;6.20;;;;;;;5.21;100.00;97298.38;5042679;28;20577;-66
2024/03/22 02:32:07;;;;;;;7.18;5.18;;;;;;;5.15;100.00;97289.59;5042137;28;20037;-66
2024/03/22 02:34:32;;;;;;;9.20;5.38;;;;;;;5.09;100.00;97288.13;5040768;28;20091;-65
2024/03/22 02:36:58;;;;;;;10.23;5.45;;;;;;;4.96;100.00;97290.66;5044335;28;20044;-67
2024/03/22 02:39:25;;;;;;;8.48;5.60;;;;;;;4.88;100.00;97287.91;5049917;28;20452;-66
2024/03/22 02:41:51;;;;;;;6.10;5.13;;;;;;;4.94;100.00;97292.88;5025250;28;20105;-66
2024/03/22 02:44:16;;;;;;;7.72;5.50;;;;;;;4.65;100.00;97301.56;5053208;28;20040;-67
2024/03/22 02:46:42;;;;;;;7.05;5.53;;;;;;;4.43;100.00;97291.59;5051561;28;20036;-66
2024/03/22 02:49:07;;;;;;;9.68;5.70;;;;;;;4.29;100.00;97288.97;5036395;28;20044;-68
2024/03/22 02:51:33;;;;;;;7.38;5.70;;;;;;;4.22;100.00;97288.59;5041733;28;20041;-68
2024/03/22 02:53:58;;;;;;;11.27;6.93;;;;;;;4.06;100.00;97284.69;5048956;28;20107;-69
2024/03/22 02:56:24;;;;;;;10.40;6.80;;;;;;;4.01;100.00;97278.25;5035441;28;20053;-68
2024/03/22 02:58:50;;;;;;;12.98;7.13;;;;;;;3.88;100.00;97275.63;5040672;28;20052;-68
2024/03/22 03:01:16;;;;;;;15.60;7.75;;;;;;;3.77;100.00;97275.09;5041641;28;20044;-66
2024/03/22 03:03:41;;;;;;;18.38;9.60;;;;;;;3.72;100.00;97264.38;5040864;28;20045;-66
2024/03/22 03:06:08;;;;;;;11.85;7.55;;;;;;;3.68;100.00;97266.09;5018821;28;20037;-65
2024/03/22 03:08:34;;;;;;;12.85;7.25;;;;;;;3.71;100.00;97265.47;5049564;28;20042;-66
2024/03/22 03:10:59;;;;;;;10.98;7.47;;;;;;;3.76;100.00;97262.63;5057884;28;20052;-68
2024/03/22 03:13:25;;;;;;;9.30;6.53;;;;;;;3.89;100.00;97263.66;5036598;28;20041;-68
2024/03/22 03:15:51;;;;;;;10.25;6.25;;;;;;;4.02;100.00;97274.44;5041580;28;20041;-69
2024/03/22 03:18:16;;;;;;;9.40;6.47;;;;;;;4.01;100.00;97278.25;5036030;28;20100;-69
2024/03/22 03:20:42;;;;;;;9.43;6.38;;;;;;;4.09;100.00;97274.03;5022840;28;20055;-68
2024/03/22 03:23:08;;;;;;;8.18;6.25;;;;;;;4.33;100.00;97276.38;5039213;28;20039;-68
2024/03/22 03:25:33;;;;;;;6.63;5.55;;;;;;;4.50;100.00;97275.66;5044638;28;20080;-68
2024/03/22 03:27:58;;;;;;;9.68;5.90;;;;;;;4.63;100.00;97273.97;5022202;28;20515;-68
2024/03/22 03:30:24;;;;;;;8.48;5.75;;;;;;;4.70;100.00;97268.88;5035678;28;20060;-68
2024/03/22 03:32:49;;;;;;;8.38;5.85;;;;;;;4.82;100.00;97265.53;5049685;28;20044;-67
2024/03/22 03:35:14;;;;;;;7.32;5.85;;;;;;;4.94;100.00;97259.53;5040447;28;20500;-66
2024/03/22 03:37:40;;;;;;;7.55;5.63;;;;;;;5.07;100.00;97253.16;5057661;28;20032;-66
2024/03/22 03:40:06;;;;;;;11.00;5.35;;;;;;;5.15;100.00;97248.88;5035101;28;20040;-67
2024/03/22 03:42:32;;;;;;;7.65;5.20;;;;;;;5.20;100.00;97251.41;5046226;28;20127;-67
2024/03/22 03:44:57;;;;;;;8.68;5.32;;;;;;;5.15;100.00;97243.44;5054547;28;20104;-68
2024/03/22 03:47:22;;;;;;;7.20;5.07;;;;;;;4.97;100.00;97239.88;5063942;28;20040;-67
2024/03/22 03:49:48;;;;;;;10.27;5.28;;;;;;;4.79;100.00;97245.28;5039995;28;20041;-67
2024/03/22 03:52:13;;;;;;;6.55;5.07;;;;;;;4.84;100.00;97241.59;5035602;28;20043;-67
2024/03/22 03:54:39;;;;;;;8.80;4.90;;;;;;;4.92;100.00;97240.81;5039712;28;20033;-67
2024/03/22 03:57:04;;;;;;;12.07;5.53;;;;;;;4.94;100.00;97240.50;5034336;28;20036;-68
2024/03/22 03:59:30;;;;;;;9.85;6.13;;;;;;;4.94;100.00;97230.44;5041109;28;20037;-67
2024/03/22 04:01:55;;;;;;;9.95;5.20;;;;;;;5.04;100.00;97233.97;5056554;28;20043;-68
2024/03/22 04:04:21;;;;;;;7.25;4.90;;;;;;;4.95;100.00;97232.06;5034697;28;20384;-67
2024/03/22 04:06:47;;;;;;;15.23;9.38;;;;;;;5.04;100.00;97226.66;5040984;28;20128;-67
2024/03/22 04:09:12;;;;;;;10.95;7.32;;;;;;;4.88;100.00;97229.00;5039680;28;20045;-67
2024/03/22 04:11:38;;;;;;;14.50;8.57;;;;;;;4.58;100.00;97222.53;5052794;28;20144;-67
2024/03/22 04:14:05;;;;;;;11.63;7.78;;;;;;;4.46;100.00;97220.41;5038949;28;20064;-68
2024/03/22 04:16:31;;;;;;;9.20;6.28;;;;;;;4.34;100.00;97223.75;5052892;28;20495;-67
2024/03/22 04:18:57;;;;;;;8.07;5.63;;;;;;;4.45;100.00;97218.84;5050035;28;20403;-68
2024/03/22 04:21:22;;;;;;;9.73;5.97;;;;;;;4.50;100.00;97221.41;5049668;28;20048;-68
2024/03/22 04:23:48;;;;;;;6.15;5.07;;;;;;;4.59;100.00;97221.41;5039291;28;20110;-68
2024/03/22 04:26:14;;;;;;;7.18;5.32;;;;;;;4.49;100.00;97216.28;5050087;28;20114;-67
2024/03/22 04:28:40;;;;;;;13.00;5.75;;;;;;;4.34;100.00;97214.78;5056560;28;20037;-67
2024/03/22 04:31:08;;;;;;;8.25;5.18;;;;;;;4.16;100.00;97216.63;5045422;28;20166;-66
2024/03/22 04:33:34;;;;;;;9.02;5.65;;;;;;;4.23;100.00;97208.84;5044210;28;20496;-68
2024/03/22 04:36:01;;;;;;;9.45;5.43;;;;;;;4.30;100.00;97213.81;5039290;28;20112;-68
2024/03/22 04:38:27;;;;;;;10.30;5.55;;;;;;;4.39;100.00;97211.94;5050107;28;20037;-68
2024/03/22 04:40:53;;;;;;;9.13;5.22;;;;;;;4.43;100.00;97206.69;5025242;28;20049;-68
2024/03/22 04:43:19;;;;;;;13.55;6.50;;;;;;;4.47;100.00;97216.59;5034688;28;20033;-68
2024/03/22 04:45:46;;;;;;;9.90;6.38;;;;;;;4.57;100.00;97213.63;5039191;28;20075;-68
2024/03/22 04:48:13;;;;;;;13.90;5.72;;;;;;;4.61;100.00;97213.78;5059575;28;20041;-68
2024/03/22 04:50:39;;;;;;;9.68;5.95;;;;;;;4.59;100.00;97214.09;5042021;28;20041;-68
2024/03/22 04:53:05;;;;;;;7.90;4.95;;;;;;;4.68;100.00;97222.25;5047020;28;20662;-68
2024/03/22 04:55:31;;;;;;;12.45;5.63;;;;;;;4.64;100.00;97212.34;5044148;28;20770;-67
2024/03/22 04:57:56;;;;;;;15.35;7.80;;;;;;;4.40;100.00;97208.13;5038274;28;20053;-67
2024/03/22 05:00:21;;;;;;;11.32;7.68;;;;;;;4.22;100.00;97204.53;5041071;28;20055;-66
2024/03/22 05:02:47;;;;;;;9.10;5.55;;;;;;;4.04;100.00;97202.88;5040051;28;20059;-66
2024/03/22 05:05:13;;;;;;;8.38;5.57;;;;;;;3.89;100.00;97204.06;5039396;28;20488;-67
2024/03/22 05:07:38;;;;;;;8.45;5.60;;;;;;;3.87;100.00;97211.69;5021525;28;20045;-68
2024/03/22 05:10:04;;;;;;;6.43;5.18;;;;;;;4.01;100.00;97205.06;5034159;28;20039;-69
2024/03/22 05:12:29;;;;;;;9.70;5.20;;;;;;;3.98;100.00;97205.72;5040122;28;20392;-67
2024/03/22 05:14:55;;;;;;;11.73;6.25;;;;;;;3.94;100.00;97198.50;5041358;28;20029;-66
2024/03/22 05:17:21;;;;;;;13.65;7.07;;;;;;;3.79;100.00;97200.50;5035120;28;20792;-68
2024/03/22 05:19:46;;;;;;;15.48;6.18;;;;;;;3.74;100.00;97200.63;5038940;28;20227;-67
2024/03/22 05:22:12;;;;;;;10.57;7.00;;;;;;;3.85;100.00;97194.94;5041991;28;20041;-68
2024/03/22 05:24:37;;;;;;;12.57;6.55;;;;;;;4.09;100.00;97200.81;5037512;28;20094;-67
2024/03/22 05:27:03;;;;;;;14.73;8.02;;;;;;;4.17;100.00;97201.97;5033868;28;20045;-67
2024/03/22 05:29:28;;;;;;;14.43;7.38;;;;;;;4.31;100.00;97196.44;5038612;28;20048;-67
2024/03/22 05:31:54;;;;;;;14.10;7.05;;;;;;;4.29;100.00;97196.75;5048986;28;20056;-67
2024/03/22 05:34:19;;;;;;;10.48;6.10;;;;;;;4.31;100.00;97196.44;5036371;28;20033;-67
2024/03/22 05:36:48;;;;;;;13.98;6.63;;;;;;;4.40;100.00;97189.13;5021148;28;20566;-68
2024/03/22 05:39:14;;;;;;;14.20;7.18;;;;;;;4.55;100.00;97187.91;5051653;28;20041;-67
2024/03/22 05:41:40;;;;;;;9.48;6.72;;;;;;;4.86;100.00;97189.72;5040843;28;20551;-67
2024/03/22 05:44:05;;;;;;;16.50;6.97;;;;;;;5.19;100.00;97184.66;5041016;28;20206;-66
2024/03/22 05:46:31;;;;;;;11.68;6.15;;;;;;;5.51;100.00;97194.22;5020449;28;20044;-69
2024/03/22 05:48:58;;;;;;;9.55;5.45;;;;;;;5.69;100.00;97178.69;5057565;28;20041;-68
2024/03/22 05:51:24;;;;;;;7.22;5.03;;;;;;;5.76;100.00;97180.88;5048054;28;20075;-66
2024/03/22 05:53:49;;;;;;;10.10;5.63;;;;;;;5.84;100.00;97176.56;5049258;28;20123;-67
2024/03/22 05:56:15;;;;;;;6.90;4.90;;;;;;;5.92;100.00;97178.47;5034705;28;20025;-67
2024/03/22 05:58:40;;;;;;;8.38;4.80;;;;;;;6.09;100.00;97175.72;5038992;28;20045;-67
2024/03/22 06:01:06;;;;;;;7.68;4.68;;;;;;;6.33;100.00;97174.34;5045955;28;20041;-69
2024/03/22 06:03:31;;;;;;;8.57;4.90;;;;;;;6.80;100.00;97178.91;5056246;28;20047;-68
2024/03/22 06:06:00;;;;;;;7.10;4.65;;;;;;;7.52;100.00;97184.28;5043026;28;20136;-68
2024/03/22 06:08:26;;;;;;;7.05;4.45;;;;;;;8.58;100.00;97171.91;5050510;28;20725;-68
2024/03/22 06:10:55;;;;;;;6.10;4.65;;;;;;;9.43;100.00;97172.06;5049725;28;20068;-68
2024/03/22 06:13:21;;;;;;;10.05;4.30;;;;;;;10.43;100.00;97179.44;5044754;28;20455;-68
2024/03/22 06:15:49;;;;;;;6.80;4.35;;;;;;;10.79;100.00;97183.81;5056264;28;20040;-68
2024/03/22 06:18:15;;;;;;;6.97;4.30;;;;;;;11.15;100.00;97187.34;5049147;28;20039;-68
2024/03/22 06:20:41;;;;;;;5.95;4.30;;;;;;;12.13;100.00;97188.13;5053804;28;20064;-69
2024/03/22 06:23:07;;;;;;;9.60;3.50;;;;;;;12.81;100.00;97186.50;5048212;28;20032;-68
2024/03/22 06:25:33;;;;;;;5.82;3.13;;;;;;;13.61;94.25;97196.66;5045922;28;20048;-67
2024/03/22 06:27:58;;;;;;;7.63;3.97;;;;;;;13.84;86.68;97201.28;5040371;28;20599;-67
2024/03/22 06:30:24;;;;;;;8.63;3.80;;;;;;;14.64;89.28;97196.19;5036981;28;20053;-67
2024/03/22 06:32:49;;;;;;;11.18;4.10;;;;;;;14.73;85.15;97190.38;5041283;28;20373;-67
2024/03/22 06:35:14;;;;;;;11.32;4.40;;;;;;;15.23;80.30;97189.91;5048399;28;20040;-67
2024/03/22 06:37:40;;;;;;;9.35;4.13;;;;;;;15.34;76.55;97192.72;5054259;28;20043;-67
2024/03/22 06:40:09;;;;;;;5.70;3.70;;;;;;;16.17;71.67;97197.41;5045522;28;20101;-67
2024/03/22 06:42:35;;;;;;;26.20;5.30;;;;;;;17.04;69.57;97189.19;5049633;28;20076;-68
2024/03/22 06:45:02;;;;;;;8.45;3.47;;;;;;;17.42;63.96;97197.81;5040992;28;20124;-68
2024/03/22 06:47:27;;;;;;;9.68;3.58;;;;;;;16.99;65.81;97191.16;5044542;28;20048;-68
2024/03/22 06:49:53;;;;;;;7.50;3.80;;;;;;;16.79;65.70;97189.97;5050127;28;20033;-68
2024/03/22 06:52:19;;;;;;;8.63;4.40;;;;;;;15.46;74.15;97184.09;5048083;28;20045;-68
2024/03/22 06:54:44;;;;;;;10.30;4.82;;;;;;;14.75;84.30;97178.94;5041728;28;20098;-68
2024/03/22 06:57:10;;;;;;;12.48;6.68;;;;;;;14.19;93.71;97167.00;5036735;28;20505;-68
2024/03/22 06:59:35;;;;;;;8.77;6.65;;;;;;;12.87;100.00;97170.50;5039576;28;20412;-68
2024/03/22 07:02:01;;;;;;;8.93;5.65;;;;;;;12.53;100.00;97159.41;5037818;28;20037;-67
2024/03/22 07:04:27;;;;;;;12.50;6.90;;;;;;;11.85;100.00;97164.47;5035171;28;20047;-67
2024/03/22 07:06:52;;;;;;;12.18;10.15;;;;;;;11.89;100.00;97159.06;5051710;28;20053;-67
2024/03/22 07:09:18;;;;;;;17.25;10.65;;;;;;;11.13;100.00;97155.94;5035824;28;20513;-66
2024/03/22 07:11:43;;;;;;;9.30;5.90;;;;;;;11.05;100.00;97153.06;5041884;28;20081;-66
2024/03/22 07:14:08;;;;;;;14.52;7.05;;;;;;;10.88;100.00;97145.25;5035682;28;20477;-67
2024/03/22 07:16:34;;;;;;;13.88;8.30;;;;;;;9.88;100.00;97141.66;5041331;28;20037;-67
2024/03/22 07:18:59;;;;;;;14.63;8.15;;;;;;;10.41;100.00;97140.66;5039432;28;20037;-66
2024/03/22 07:21:25;;;;;;;11.27;7.72;;;;;;;11.42;100.00;97146.38;5041388;28;20113;-66
2024/03/22 07:23:50;;;;;;;17.65;12.30;;;;;;;12.08;100.00;97139.00;5060410;28;20138;-67
2024/03/22 07:26:15;;;;;;;11.40;8.43;;;;;;;13.00;100.00;97152.63;5042912;28;20044;-66
2024/03/22 07:28:41;;;;;;;15.02;11.10;;;;;;;13.47;100.00;97150.53;5047150;28;20406;-67
2024/03/22 07:31:06;;;;;;;16.65;11.95;;;;;;;14.38;100.00;97153.03;5046289;28;20103;-66
2024/03/22 07:33:32;;;;;;;14.90;7.63;;;;;;;14.99;95.88;97152.72;5043768;28;20077;-67
2024/03/22 07:36:02;;;;;;;17.10;6.15;;;;;;;16.31;86.82;97154.41;5039232;28;20495;-67
2024/03/22 07:38:27;;;;;;;12.98;4.70;;;;;;;17.39;76.41;97160.63;5038027;28;20063;-67
2024/03/22 07:40:52;;;;;;;11.50;4.53;;;;;;;17.80;72.11;97164.84;5040827;28;20041;-67
2024/03/22 07:43:18;;;;;;;11.98;4.55;;;;;;;18.10;69.48;97167.06;5051034;28;20133;-67
2024/03/22 07:45:43;;;;;;;6.03;3.92;;;;;;;17.29;75.23;97164.22;5039543;28;20037;-67
2024/03/22 07:48:10;;;;;;;5.72;3.88;;;;;;;17.57;75.00;97163.34;5053300;28;20033;-67
2024/03/22 07:50:35;;;;;;;5.88;3.40;;;;;;;18.34;69.57;97168.09;5049089;28;20140;-67
2024/03/22 07:53:01;;;;;;;7.90;3.38;;;;;;;19.57;64.58;97173.34;5048423;28;20069;-69
2024/03/22 07:55:26;;;;;;;7.95;3.60;;;;;;;19.21;61.59;97171.75;5045072;28;20111;-67
2024/03/22 07:57:51;;;;;;;7.65;3.53;;;;;;;20.03;60.18;97166.44;5039914;28;20069;-67
2024/03/22 08:00:17;;;;;;;9.18;3.85;;;;;;;19.93;58.78;97176.47;5041174;28;20041;-66
2024/03/22 08:02:43;;;;;;;8.02;3.60;;;;;;;19.81;57.73;97175.06;5059463;28;20041;-66
2024/03/22 08:05:09;;;;;;;10.90;4.68;;;;;;;20.15;59.43;97167.84;5043225;28;20779;-67
2024/03/22 08:07:34;;;;;;;10.18;4.18;;;;;;;18.70;63.72;97157.50;5040433;28;20041;-67
2024/03/22 08:10:01;;;;;;;10.40;4.55;;;;;;;20.35;58.13;97162.41;5039765;28;20060;-66
2024/03/22 08:12:28;;;;;;;8.40;3.55;;;;;;;20.93;56.38;97170.66;5041612;28;20040;-66
2024/03/22 08:14:53;;;;;;;13.25;3.95;;;;;;;21.37;54.33;97172.25;5044955;28;20086;-66
2024/03/22 08:17:18;;;;;;;8.70;3.70;;;;;;;20.02;56.76;97162.88;5034686;28;20044;-67
2024/03/22 08:19:44;;;;;;;5.97;3.83;;;;;;;20.90;54.48;97163.91;5039817;28;20099;-67
2024/03/22 08:22:10;;;;;;;6.53;3.83;;;;;;;21.47;52.19;97161.34;5036255;28;20032;-67
2024/03/22 08:24:35;;;;;;;10.20;4.13;;;;;;;21.68;52.94;97154.53;5057655;28;20529;-67
2024/03/22 08:27:01;;;;;;;10.25;5.22;;;;;;;22.37;49.48;97156.69;5038751;28;20439;-68
2024/03/22 08:29:26;;;;;;;15.63;4.78;;;;;;;22.07;48.97;97153.69;5032218;28;20032;-66
2024/03/22 08:31:53;;;;;;;11.85;4.57;;;;;;;21.99;49.81;97149.50;5050106;28;20593;-66
2024/03/22 08:34:18;;;;;;;7.72;4.20;;;;;;;21.98;49.67;97152.72;5033857;28;20110;-66
2024/03/22 08:36:43;;;;;;;6.43;4.20;;;;;;;20.51;53.27;97150.63;5038660;28;20045;-68
2024/03/22 08:39:10;;;;;;;10.98;4.70;;;;;;;21.66;51.45;97143.84;5032098;28;20064;-67
2024/03/22 08:41:37;;;;;;;8.63;4.50;;;;;;;19.98;53.56;97125.19;5039053;28;20103;-67
2024/03/22 08:44:02;;;;;;;9.13;4.45;;;;;;;20.75;53.36;97134.78;5035219;28;20480;-68
2024/03/22 08:46:28;;;;;;;8.15;4.00;;;;;;;19.84;56.86;97126.97;5042755;28;20063;-67
2024/03/22 08:48:53;;;;;;;9.52;4.35;;;;;;;21.68;51.08;97135.84;5050174;28;20120;-67
2024/03/22 08:51:21;;;;;;;7.00;4.55;;;;;;;21.70;48.69;97138.97;5033991;28;20144;-66
2024/03/22 08:53:46;;;;;;;9.52;4.68;;;;;;;21.25;51.23;97139.44;5048360;28;20113;-67
2024/03/22 08:56:11;;;;;;;8.95;4.57;;;;;;;22.07;50.61;97136.97;5034013;28;20563;-66
2024/03/22 08:58:37;;;;;;;7.95;3.88;;;;;;;21.26;51.89;97137.44;5038702;28;20040;-66
2024/03/22 09:01:02;;;;;;;11.27;4.15;;;;;;;19.88;55.17;97134.47;5049208;28;20565;-67
2024/03/22 09:03:28;;;;;;;7.00;4.35;;;;;;;18.30;64.29;97109.13;5026124;28;20408;-66
2024/03/22 09:05:53;;;;;;;9.52;4.90;;;;;;;19.31;61.94;97108.19;5038313;28;20049;-66
2024/03/22 09:08:21;;;;;;;8.63;4.20;;;;;;;20.69;55.94;97114.19;5031888;28;20443;-66
2024/03/22 09:10:47;;;;;;;8.40;4.57;;;;;;;19.01;61.34;97110.47;5038530;28;20045;-66
2024/03/22 09:13:12;;;;;;;13.93;5.57;;;;;;;20.41;56.01;97107.88;5018789;28;20037;-66
2024/03/22 09:15:38;;;;;;;9.40;4.97;;;;;;;20.24;57.42;97104.19;5047090;28;20048;-68
2024/03/22 09:18:04;;;;;;;13.25;5.45;;;;;;;20.34;57.73;97111.53;5050947;28;20643;-68
2024/03/22 09:20:29;;;;;;;9.15;4.30;;;;;;;20.73;56.90;97101.00;5045490;28;20052;-67
2024/03/22 09:22:55;;;;;;;13.77;4.72;;;;;;;20.04;56.32;97102.06;5054719;28;20068;-66
2024/03/22 09:25:20;;;;;;;6.65;4.05;;;;;;;20.72;57.63;97091.84;5032290;28;20842;-66
2024/03/22 09:27:46;;;;;;;11.88;5.05;;;;;;;20.71;57.48;97092.31;5038225;28;20041;-67
2024/03/22 09:30:12;;;;;;;7.65;4.20;;;;;;;20.80;57.42;97087.75;5044095;28;20041;-68
2024/03/22 09:32:38;;;;;;;6.85;4.38;;;;;;;20.53;56.21;97092.59;5052421;28;20041;-67
2024/03/22 09:35:03;;;;;;;12.20;4.35;;;;;;;20.15;58.08;97090.78;5035213;28;20044;-68
2024/03/22 09:37:29;;;;;;;9.98;4.00;;;;;;;20.27;58.42;97085.84;5050498;28;20044;-67
2024/03/22 09:39:54;;;;;;;9.68;3.50;;;;;;;20.56;57.52;97073.03;5042494;28;20069;-66
2024/03/22 09:42:22;;;;;;;9.77;4.10;;;;;;;20.97;54.59;97085.06;5052940;28;20040;-67
2024/03/22 09:44:50;;;;;;;9.40;4.82;;;;;;;20.97;54.82;97071.13;5042259;28;20136;-66
2024/03/22 09:47:16;;;;;;;8.50;3.85;;;;;;;20.16;55.94;97069.31;5036940;28;20108;-66
2024/03/22 09:49:46;;;;;;;8.43;4.38;;;;;;;20.01;59.02;97072.31;5041980;28;20041;-65
2024/03/22 09:52:12;;;;;;;9.38;4.80;;;;;;;20.37;56.71;97063.41;5037238;28;20045;-67
2024/03/22 09:54:38;;;;;;;10.27;4.95;;;;;;;20.71;56.17;97070.81;5050695;28;20101;-67
2024/03/22 09:57:04;;;;;;;10.20;4.05;;;;;;;20.22;57.29;97060.09;5046896;28;20078;-68
2024/03/22 09:59:29;;;;;;;10.77;4.72;;;;;;;20.28;57.17;97054.84;5041640;28;20495;-66
2024/03/22 10:01:58;;;;;;;10.48;4.72;;;;;;;21.27;55.26;97061.78;5053164;28;20135;-65
2024/03/22 10:04:23;;;;;;;8.30;4.72;;;;;;;21.09;54.59;97061.38;5044657;28;20470;-66
2024/03/22 10:06:49;;;;;;;26.70;9.38;;;;;;;21.16;54.61;97056.44;5040826;28;20048;-66
2024/03/22 10:09:15;;;;;;;24.20;6.93;;;;;;;20.74;54.78;97056.06;5036587;28;20043;-66
2024/03/22 10:11:41;;;;;;;15.88;6.10;;;;;;;20.96;54.75;97050.09;5038280;28;20048;-66
2024/03/22 10:14:06;;;;;;;17.60;6.40;;;;;;;21.18;54.34;97042.88;5037615;28;20059;-65
2024/03/22 10:16:35;;;;;;;7.97;4.18;;;;;;;21.54;53.38;97039.38;5049067;28;20143;-66
2024/03/22 10:19:00;;;;;;;12.65;5.85;;;;;;;21.22;53.71;97040.00;5043141;28;20032;-66
2024/03/22 10:21:27;;;;;;;10.20;5.38;;;;;;;21.37;54.18;97032.94;5041503;28;20047;-65
2024/03/22 10:23:53;;;;;;;8.75;3.90;;;;;;;21.08;53.92;97031.94;5040189;28;20094;-65
2024/03/22 10:26:18;;;;;;;9.38;4.40;;;;;;;20.84;55.29;97026.44;5036734;28;20040;-65
2024/03/22 10:28:47;;;;;;;9.43;3.80;;;;;;;20.87;55.68;97020.03;5023379;28;20085;-65
2024/03/22 10:31:15;;;;;;;5.45;3.80;;;;;;;20.85;55.50;97014.09;5017321;28;20098;-65
2024/03/22 10:33:41;;;;;;;9.48;3.80;;;;;;;21.33;53.76;97014.72;5040867;28;20055;-66
2024/03/22 10:36:08;;;;;;;7.70;4.13;;;;;;;21.35;55.01;97009.50;5038360;28;20037;-66
2024/03/22 10:38:37;;;;;;;10.82;5.63;;;;;;;20.57;56.81;97002.25;5055362;28;20123;-66
2024/03/22 10:41:03;;;;;;;10.52;5.10;;;;;;;20.44;56.39;97002.09;5052274;28;20043;-66
2024/03/22 10:43:29;;;;;;;9.40;5.20;;;;;;;19.51;61.36;96994.44;5050775;28;20040;-66
2024/03/22 10:45:59;;;;;;;8.50;5.28;;;;;;;19.90;61.29;96996.66;5039871;28;20549;-66
2024/03/22 10:48:29;;;;;;;8.48;5.00;;;;;;;20.04;59.79;96995.63;5055569;28;20052;-66
2024/03/22 10:50:55;;;;;;;;;;;;;;;19.24;63.15;96990.44;5044953;28;20377;-66
2024/03/22 10:53:24;;;;;;;7.53;4.88;;;;;;;19.25;63.17;96982.91;5036091;28;19982;-67
2024/03/22 10:55:52;;;;;;;10.05;5.43;;;;;;;19.04;64.67;96983.97;5056394;28;20041;-65
2024/03/22 10:58:21;;;;;;;9.25;4.63;;;;;;;19.49;65.48;96978.19;5055439;28;20648;-66
2024/03/22 11:00:46;;;;;;;8.97;5.03;;;;;;;19.32;65.79;96970.88;5056631;28;20036;-65
2024/03/22 11:03:15;;;;;;;10.82;4.40;;;;;;;19.64;61.04;96975.97;5037225;28;20068;-65
2024/03/22 11:05:47;;;;;;;14.80;5.45;;;;;;;19.24;62.45;96970.22;5040253;28;20097;-66
2024/03/22 11:08:13;;;;;;;8.45;4.95;;;;;;;18.88;65.77;96965.13;5035385;28;20033;-65
2024/03/22 11:10:39;;;;;;;9.70;5.32;;;;;;;18.76;67.30;96958.09;5040012;28;20076;-67
2024/03/22 11:13:06;;;;;;;8.80;4.38;;;;;;;19.17;65.02;96948.09;5035475;28;20071;-67
2024/03/22 11:15:32;;;;;;;7.32;4.47;;;;;;;19.05;65.47;96954.97;5039702;28;20366;-67
2024/03/22 11:17:59;;;;;;;8.07;4.53;;;;;;;19.05;63.41;96954.97;5039734;28;20045;-67
2024/03/22 11:20:25;;;;;;;9.55;5.15;;;;;;;18.87;65.25;96944.09;5034090;28;20048;-68
2024/03/22 11:22:52;;;;;;;8.02;4.72;;;;;;;19.15;62.75;96950.50;5039759;28;20546;-68